Main page
METAR-TAF:

METAR-TAF

Airports :

Honiara International Airport

Honiara, Guadalcanal, Solomon Islands

latitude: 09-25S, longitude: 160-03E, elevation: 8 m

Current weather observation

The report was made 36 minutes ago, at 04:00 UTC
Wind 10 kt from the Northwest
Temperature 31°C
Humidity 75%
Pressure 1006 hPa
Visibility 10 km or more
Scattered clouds at a height of 2000 ft
Broken clouds at a height of 3000 ft

METAR: AGGH 240400Z 32010KT 9999 SCT020 BKN030 31/26 Q1006 RMK/ SH TO S/SW/ W

Time: 15:36 (04:36 UTC)

Forecast

The report was made 5 hours and 26 minutes ago, at 23:10 UTC
Forecast valid from 24 at 00 UTC to 24 at 24 UTC
Wind 10 kt from the Northwest
Visibility: 1009 m
Few clouds at a height of 1900 ft

TAF: AGGH 232310Z 2400/2424 32010KT 9999 FEW019 T 31 32 31 28 Q 1010 1008 1007 1009

Weather observations and forecasts of more than 4000 airports (METAR and TAF reports).

The available stations are represented by yellow and red dots on the map.

Hover mouse over dot to see the name of the station.

Then click to see weather observations and forecasts.

To change the map : click on the green buttons with a black cross to zoom in, on the green button with a dash to zoom out, or on the green arrows for adjacent maps.


METAR-TAF: